sensor_id;sensor_type;location;lat;lon;timestamp;pressure;altitude;pressure_sealevel;temperature;humidity
40838;BME280;29632;49.168;9.848;2023-03-30T00:00:40;96466.22;;;17.38;40.02
40838;BME280;29632;49.168;9.848;2023-03-30T00:03:08;96468.47;;;17.41;39.92
40838;BME280;29632;49.168;9.848;2023-03-30T00:05:34;96467.25;;;17.43;39.85
40838;BME280;29632;49.168;9.848;2023-03-30T00:08:00;96464.25;;;17.46;39.72
40838;BME280;29632;49.168;9.848;2023-03-30T00:10:27;96470.94;;;17.49;39.95
40838;BME280;29632;49.168;9.848;2023-03-30T00:12:54;96465.47;;;17.50;39.71
40838;BME280;29632;49.168;9.848;2023-03-30T00:15:21;96468.72;;;17.52;39.89
40838;BME280;29632;49.168;9.848;2023-03-30T00:17:48;96477.03;;;17.56;39.70
40838;BME280;29632;49.168;9.848;2023-03-30T00:20:15;96476.84;;;17.58;39.78
40838;BME280;29632;49.168;9.848;2023-03-30T00:22:42;96483.75;;;17.59;39.55
40838;BME280;29632;49.168;9.848;2023-03-30T00:25:10;96481.53;;;17.62;39.60
40838;BME280;29632;49.168;9.848;2023-03-30T00:27:37;96490.84;;;17.65;39.69
40838;BME280;29632;49.168;9.848;2023-03-30T00:30:08;96501.00;;;17.68;39.87
40838;BME280;29632;49.168;9.848;2023-03-30T00:32:35;96498.38;;;17.68;39.93
40838;BME280;29632;49.168;9.848;2023-03-30T00:35:01;96509.09;;;17.66;39.84
40838;BME280;29632;49.168;9.848;2023-03-30T00:37:27;96507.91;;;17.69;40.11
40838;BME280;29632;49.168;9.848;2023-03-30T00:39:52;96518.06;;;17.72;40.05
40838;BME280;29632;49.168;9.848;2023-03-30T00:42:19;96518.06;;;17.72;40.07
40838;BME280;29632;49.168;9.848;2023-03-30T00:45:17;96518.06;;;17.72;40.14
40838;BME280;29632;49.168;9.848;2023-03-30T00:48:02;96511.94;;;17.71;40.20
40838;BME280;29632;49.168;9.848;2023-03-30T00:50:37;96506.88;;;17.70;40.20
40838;BME280;29632;49.168;9.848;2023-03-30T00:53:14;96498.38;;;17.68;40.21
40838;BME280;29632;49.168;9.848;2023-03-30T00:55:42;96474.84;;;17.66;40.21
40838;BME280;29632;49.168;9.848;2023-03-30T00:58:08;96438.81;;;17.67;40.44
40838;BME280;29632;49.168;9.848;2023-03-30T01:00:36;96419.97;;;17.63;40.60
40838;BME280;29632;49.168;9.848;2023-03-30T01:03:06;96420.94;;;17.55;40.94
40838;BME280;29632;49.168;9.848;2023-03-30T01:05:33;96429.44;;;17.51;40.78
40838;BME280;29632;49.168;9.848;2023-03-30T01:08:02;96424.97;;;17.51;40.95
40838;BME280;29632;49.168;9.848;2023-03-30T01:10:33;96424.78;;;17.53;40.70
40838;BME280;29632;49.168;9.848;2023-03-30T01:13:00;96419.94;;;17.57;40.86
40838;BME280;29632;49.168;9.848;2023-03-30T01:15:26;96405.56;;;17.59;40.96
40838;BME280;29632;49.168;9.848;2023-03-30T01:24:47;96396.81;;;17.52;40.95
40838;BME280;29632;49.168;9.848;2023-03-30T01:26:56;96385.28;;;17.46;41.03
40838;BME280;29632;49.168;9.848;2023-03-30T01:40:17;96371.88;;;17.41;41.39
40838;BME280;29632;49.168;9.848;2023-03-30T01:43:00;96378.56;;;17.44;41.21
40838;BME280;29632;49.168;9.848;2023-03-30T01:45:54;96374.56;;;17.48;41.22
40838;BME280;29632;49.168;9.848;2023-03-30T01:51:20;96372.16;;;17.60;41.33
40838;BME280;29632;49.168;9.848;2023-03-30T01:54:09;96369.13;;;17.63;41.15
40838;BME280;29632;49.168;9.848;2023-03-30T01:56:47;96364.69;;;17.63;41.25
40838;BME280;29632;49.168;9.848;2023-03-30T01:59:32;96370.75;;;17.64;41.02
40838;BME280;29632;49.168;9.848;2023-03-30T02:02:00;96364.25;;;17.66;41.32
40838;BME280;29632;49.168;9.848;2023-03-30T02:04:30;96352.91;;;17.66;41.08
40838;BME280;29632;49.168;9.848;2023-03-30T02:07:06;96360.25;;;17.70;41.25
40838;BME280;29632;49.168;9.848;2023-03-30T02:09:34;96355.78;;;17.71;41.31
40838;BME280;29632;49.168;9.848;2023-03-30T02:12:01;96367.09;;;17.71;41.16
40838;BME280;29632;49.168;9.848;2023-03-30T02:14:30;96378.47;;;17.72;41.35
40838;BME280;29632;49.168;9.848;2023-03-30T02:17:19;96376.44;;;17.74;41.26
40838;BME280;29632;49.168;9.848;2023-03-30T02:19:47;96383.97;;;17.77;41.26
40838;BME280;29632;49.168;9.848;2023-03-30T02:22:14;96379.50;;;17.78;41.08
40838;BME280;29632;49.168;9.848;2023-03-30T02:24:41;96394.50;;;17.77;41.14
40838;BME280;29632;49.168;9.848;2023-03-30T02:27:08;96407.66;;;17.77;41.14
40838;BME280;29632;49.168;9.848;2023-03-30T02:29:34;96400.16;;;17.74;41.34
40838;BME280;29632;49.168;9.848;2023-03-30T02:32:01;96395.88;;;17.73;41.42
40838;BME280;29632;49.168;9.848;2023-03-30T02:40:19;96419.16;;;17.69;41.32
40838;BME280;29632;49.168;9.848;2023-03-30T02:45:36;96409.44;;;17.63;41.75
40838;BME280;29632;49.168;9.848;2023-03-30T02:48:26;96401.13;;;17.60;41.70
40838;BME280;29632;49.168;9.848;2023-03-30T02:54:02;96406.38;;;17.53;41.91
40838;BME280;29632;49.168;9.848;2023-03-30T02:56:36;96410.78;;;17.52;41.78
40838;BME280;29632;49.168;9.848;2023-03-30T02:59:13;96409.56;;;17.48;42.10
40838;BME280;29632;49.168;9.848;2023-03-30T03:01:50;96415.22;;;17.45;42.08
40838;BME280;29632;49.168;9.848;2023-03-30T03:04:17;96408.13;;;17.39;42.21
40838;BME280;29632;49.168;9.848;2023-03-30T03:06:43;96415.78;;;17.34;42.21
40838;BME280;29632;49.168;9.848;2023-03-30T03:09:10;96409.09;;;17.31;42.28
40838;BME280;29632;49.168;9.848;2023-03-30T03:11:36;96416.00;;;17.32;42.30
40838;BME280;29632;49.168;9.848;2023-03-30T03:14:01;96408.69;;;17.34;42.42
40838;BME280;29632;49.168;9.848;2023-03-30T03:16:27;96412.38;;;17.33;42.36
40838;BME280;29632;49.168;9.848;2023-03-30T03:18:54;96395.72;;;17.33;42.49
40838;BME280;29632;49.168;9.848;2023-03-30T03:21:20;96395.53;;;17.34;42.56
40838;BME280;29632;49.168;9.848;2023-03-30T03:23:45;96409.50;;;17.35;42.59
40838;BME280;29632;49.168;9.848;2023-03-30T03:26:12;96403.84;;;17.38;42.54
40838;BME280;29632;49.168;9.848;2023-03-30T03:28:38;96388.69;;;17.40;42.40
40838;BME280;29632;49.168;9.848;2023-03-30T03:31:04;96399.84;;;17.42;42.36
40838;BME280;29632;49.168;9.848;2023-03-30T03:33:30;96400.66;;;17.43;42.60
40838;BME280;29632;49.168;9.848;2023-03-30T03:35:56;96405.31;;;17.41;42.56
40838;BME280;29632;49.168;9.848;2023-03-30T03:38:25;96398.59;;;17.38;42.68
40838;BME280;29632;49.168;9.848;2023-03-30T03:40:52;96407.72;;;17.35;42.60
40838;BME280;29632;49.168;9.848;2023-03-30T03:43:18;96401.00;;;17.33;42.64
40838;BME280;29632;49.168;9.848;2023-03-30T03:45:45;96400.38;;;17.31;42.77
40838;BME280;29632;49.168;9.848;2023-03-30T03:48:12;96405.66;;;17.31;42.77
40838;BME280;29632;49.168;9.848;2023-03-30T03:50:37;96375.09;;;17.30;42.78
40838;BME280;29632;49.168;9.848;2023-03-30T03:53:03;96313.13;;;17.27;42.85
40838;BME280;29632;49.168;9.848;2023-03-30T03:55:29;96311.94;;;17.30;42.83
40838;BME280;29632;49.168;9.848;2023-03-30T03:57:55;96342.69;;;17.29;42.94
40838;BME280;29632;49.168;9.848;2023-03-30T04:00:20;96342.50;;;17.31;42.91
40838;BME280;29632;49.168;9.848;2023-03-30T04:02:47;96345.91;;;17.31;42.90
40838;BME280;29632;49.168;9.848;2023-03-30T04:05:13;96332.56;;;17.33;42.96
40838;BME280;29632;49.168;9.848;2023-03-30T04:07:39;96349.59;;;17.37;43.01
40838;BME280;29632;49.168;9.848;2023-03-30T04:10:05;96357.91;;;17.41;42.93
40838;BME280;29632;49.168;9.848;2023-03-30T04:12:32;96355.47;;;17.39;42.83
40838;BME280;29632;49.168;9.848;2023-03-30T04:14:57;96362.34;;;17.40;43.09
40838;BME280;29632;49.168;9.848;2023-03-30T04:17:23;96361.34;;;17.41;42.95
40838;BME280;29632;49.168;9.848;2023-03-30T04:19:50;96363.59;;;17.44;42.97
40838;BME280;29632;49.168;9.848;2023-03-30T04:22:19;96372.91;;;17.47;43.19
40838;BME280;29632;49.168;9.848;2023-03-30T04:24:45;96399.03;;;17.48;42.96
40838;BME280;29632;49.168;9.848;2023-03-30T04:27:11;96395.41;;;17.49;43.08
40838;BME280;29632;49.168;9.848;2023-03-30T04:29:39;96405.09;;;17.42;43.25
40838;BME280;29632;49.168;9.848;2023-03-30T04:32:05;96398.59;;;17.38;43.24
40838;BME280;29632;49.168;9.848;2023-03-30T04:34:32;96379.75;;;17.34;43.38
40838;BME280;29632;49.168;9.848;2023-03-30T04:36:57;96361.94;;;17.36;43.69
40838;BME280;29632;49.168;9.848;2023-03-30T04:39:23;96345.75;;;17.40;43.34
40838;BME280;29632;49.168;9.848;2023-03-30T04:41:49;96328.34;;;17.45;43.41
40838;BME280;29632;49.168;9.848;2023-03-30T04:44:16;96319.69;;;17.51;43.53
40838;BME280;29632;49.168;9.848;2023-03-30T04:46:45;96317.88;;;17.59;43.09
40838;BME280;29632;49.168;9.848;2023-03-30T04:49:10;96305.72;;;17.64;43.13
40838;BME280;29632;49.168;9.848;2023-03-30T04:51:36;96304.34;;;17.68;43.26
40838;BME280;29632;49.168;9.848;2023-03-30T04:54:04;96308.38;;;17.71;43.28
40838;BME280;29632;49.168;9.848;2023-03-30T04:56:30;96301.28;;;17.71;43.23
40838;BME280;29632;49.168;9.848;2023-03-30T04:58:56;96292.97;;;17.68;43.02
40838;BME280;29632;49.168;9.848;2023-03-30T05:01:21;96306.75;;;17.63;43.23
40838;BME280;29632;49.168;9.848;2023-03-30T05:03:47;96322.13;;;17.60;43.26
40838;BME280;29632;49.168;9.848;2023-03-30T05:06:13;96330.44;;;17.57;43.51
40838;BME280;29632;49.168;9.848;2023-03-30T05:08:38;96297.59;;;17.52;43.44
40838;BME280;29632;49.168;9.848;2023-03-30T05:11:04;96272.88;;;17.47;43.47
40838;BME280;29632;49.168;9.848;2023-03-30T05:13:31;96249.00;;;17.48;43.50
40838;BME280;29632;49.168;9.848;2023-03-30T05:15:57;96244.13;;;17.52;43.46
40838;BME280;29632;49.168;9.848;2023-03-30T05:18:22;96241.72;;;17.57;43.36
40838;BME280;29632;49.168;9.848;2023-03-30T05:20:48;96253.44;;;17.61;43.53
40838;BME280;29632;49.168;9.848;2023-03-30T05:23:14;96262.41;;;17.67;43.27
40838;BME280;29632;49.168;9.848;2023-03-30T05:25:43;96265.44;;;17.70;43.39
40838;BME280;29632;49.168;9.848;2023-03-30T05:28:13;96276.16;;;17.69;43.26
40838;BME280;29632;49.168;9.848;2023-03-30T05:30:42;96275.56;;;17.67;43.34
40838;BME280;29632;49.168;9.848;2023-03-30T05:33:08;96266.84;;;17.66;43.54
40838;BME280;29632;49.168;9.848;2023-03-30T05:35:37;96251.88;;;17.67;43.40
40838;BME280;29632;49.168;9.848;2023-03-30T05:38:03;96260.38;;;17.69;43.55
40838;BME280;29632;49.168;9.848;2023-03-30T05:40:30;96264.41;;;17.71;43.37
40838;BME280;29632;49.168;9.848;2023-03-30T05:42:55;96254.91;;;17.70;43.51
40838;BME280;29632;49.168;9.848;2023-03-30T05:45:21;96260.16;;;17.70;43.37
40838;BME280;29632;49.168;9.848;2023-03-30T05:47:47;96242.53;;;17.71;43.42
40838;BME280;29632;49.168;9.848;2023-03-30T05:50:12;96236.28;;;17.72;43.65
40838;BME280;29632;49.168;9.848;2023-03-30T05:52:38;96223.91;;;17.72;43.57
40838;BME280;29632;49.168;9.848;2023-03-30T05:55:04;96227.53;;;17.71;43.59
40838;BME280;29632;49.168;9.848;2023-03-30T05:57:31;96231.19;;;17.70;43.44
40838;BME280;29632;49.168;9.848;2023-03-30T05:59:57;96235.03;;;17.68;43.57
40838;BME280;29632;49.168;9.848;2023-03-30T06:02:23;96240.09;;;17.63;43.73
40838;BME280;29632;49.168;9.848;2023-03-30T06:04:49;96234.63;;;17.58;43.78
40838;BME280;29632;49.168;9.848;2023-03-30T06:07:15;96242.09;;;17.54;43.83
40838;BME280;29632;49.168;9.848;2023-03-30T06:09:42;96244.13;;;17.52;43.88
40838;BME280;29632;49.168;9.848;2023-03-30T06:12:08;96256.09;;;17.54;43.74
40838;BME280;29632;49.168;9.848;2023-03-30T06:14:33;96239.88;;;17.58;43.88
40838;BME280;29632;49.168;9.848;2023-03-30T06:16:59;96226.94;;;17.63;43.79
40838;BME280;29632;49.168;9.848;2023-03-30T06:19:26;96224.69;;;17.66;43.85
40838;BME280;29632;49.168;9.848;2023-03-30T06:21:51;96220.88;;;17.69;43.78
40838;BME280;29632;49.168;9.848;2023-03-30T06:24:18;96210.34;;;17.69;43.78
40838;BME280;29632;49.168;9.848;2023-03-30T06:26:45;96221.66;;;17.69;43.82
40838;BME280;29632;49.168;9.848;2023-03-30T06:29:10;96241.94;;;17.69;43.83
40838;BME280;29632;49.168;9.848;2023-03-30T06:31:36;96241.34;;;17.67;43.98
40838;BME280;29632;49.168;9.848;2023-03-30T06:34:02;96271.28;;;17.66;43.84
40838;BME280;29632;49.168;9.848;2023-03-30T06:36:27;96286.09;;;17.67;43.85
40838;BME280;29632;49.168;9.848;2023-03-30T06:38:53;96300.47;;;17.64;43.99
40838;BME280;29632;49.168;9.848;2023-03-30T06:41:18;96309.56;;;17.62;44.07
40838;BME280;29632;49.168;9.848;2023-03-30T06:43:44;96316.00;;;17.52;44.09
40838;BME280;29632;49.168;9.848;2023-03-30T06:46:10;96337.28;;;17.44;44.32
40838;BME280;29632;49.168;9.848;2023-03-30T06:48:37;96349.00;;;17.42;44.33
40838;BME280;29632;49.168;9.848;2023-03-30T06:51:02;96336.25;;;17.39;44.59
40838;BME280;29632;49.168;9.848;2023-03-30T06:53:28;96349.59;;;17.37;44.62
40838;BME280;29632;49.168;9.848;2023-03-30T06:55:55;96344.72;;;17.34;44.71
40838;BME280;29632;49.168;9.848;2023-03-30T06:58:22;96333.19;;;17.35;44.73
40838;BME280;29632;49.168;9.848;2023-03-30T07:00:47;96337.25;;;17.38;44.63
40838;BME280;29632;49.168;9.848;2023-03-30T07:03:17;96337.47;;;17.43;44.70
40838;BME280;29632;49.168;9.848;2023-03-30T07:05:49;96336.06;;;17.47;44.62
40838;BME280;29632;49.168;9.848;2023-03-30T07:08:16;96334.88;;;17.49;44.52
40838;BME280;29632;49.168;9.848;2023-03-30T07:10:42;96332.44;;;17.48;44.52
40838;BME280;29632;49.168;9.848;2023-03-30T07:13:08;96338.28;;;17.43;44.57
40838;BME280;29632;49.168;9.848;2023-03-30T07:15:34;96332.41;;;17.41;44.77
40838;BME280;29632;49.168;9.848;2023-03-30T07:18:00;96331.19;;;17.44;44.71
40838;BME280;29632;49.168;9.848;2023-03-30T07:20:26;96335.44;;;17.45;44.75
40838;BME280;29632;49.168;9.848;2023-03-30T07:22:51;96344.78;;;17.47;44.83
40838;BME280;29632;49.168;9.848;2023-03-30T07:25:17;96352.69;;;17.47;44.91
40838;BME280;29632;49.168;9.848;2023-03-30T07:27:43;96362.19;;;17.48;45.00
40838;BME280;29632;49.168;9.848;2023-03-30T07:30:09;96369.91;;;17.50;45.02
40838;BME280;29632;49.168;9.848;2023-03-30T07:32:35;96377.00;;;17.49;44.73
40838;BME280;29632;49.168;9.848;2023-03-30T07:35:01;96397.22;;;17.49;44.96
40838;BME280;29632;49.168;9.848;2023-03-30T07:37:27;96409.75;;;17.47;45.04
40838;BME280;29632;49.168;9.848;2023-03-30T07:39:54;96414.00;;;17.41;45.14
40838;BME280;29632;49.168;9.848;2023-03-30T07:42:20;96419.66;;;17.38;45.14
40838;BME280;29632;49.168;9.848;2023-03-30T07:44:46;96420.03;;;17.35;45.39
40838;BME280;29632;49.168;9.848;2023-03-30T07:47:11;96402.63;;;17.34;45.28
40838;BME280;29632;49.168;9.848;2023-03-30T07:49:37;96411.09;;;17.29;45.34
40838;BME280;29632;49.168;9.848;2023-03-30T07:52:03;96423.22;;;17.24;45.38
40838;BME280;29632;49.168;9.848;2023-03-30T07:54:29;96432.34;;;17.21;45.49
40838;BME280;29632;49.168;9.848;2023-03-30T07:56:55;96437.16;;;17.17;45.54
40838;BME280;29632;49.168;9.848;2023-03-30T07:59:22;96437.38;;;17.16;45.77
40838;BME280;29632;49.168;9.848;2023-03-30T08:01:48;96443.81;;;17.13;45.70
40838;BME280;29632;49.168;9.848;2023-03-30T08:04:19;96437.75;;;17.13;45.82
40838;BME280;29632;49.168;9.848;2023-03-30T08:06:45;96421.16;;;17.12;45.78
40838;BME280;29632;49.168;9.848;2023-03-30T08:09:12;96410.41;;;17.14;45.60
40838;BME280;29632;49.168;9.848;2023-03-30T08:11:38;96395.03;;;17.11;45.85
40838;BME280;29632;49.168;9.848;2023-03-30T08:14:03;96388.94;;;17.10;45.88
40838;BME280;29632;49.168;9.848;2023-03-30T08:16:29;96401.91;;;17.12;45.75
40838;BME280;29632;49.168;9.848;2023-03-30T08:18:55;96406.00;;;17.14;45.59
40838;BME280;29632;49.168;9.848;2023-03-30T08:21:21;96407.78;;;17.14;45.68
40838;BME280;29632;49.168;9.848;2023-03-30T08:23:50;96413.25;;;17.12;45.84
40838;BME280;29632;49.168;9.848;2023-03-30T08:26:16;96415.25;;;17.10;45.96
40838;BME280;29632;49.168;9.848;2023-03-30T08:28:42;96416.09;;;17.11;45.83
40838;BME280;29632;49.168;9.848;2023-03-30T08:31:08;96406.19;;;17.13;45.82
40838;BME280;29632;49.168;9.848;2023-03-30T08:33:37;96422.16;;;17.11;45.76
40838;BME280;29632;49.168;9.848;2023-03-30T08:36:04;96416.69;;;17.13;45.78
40838;BME280;29632;49.168;9.848;2023-03-30T08:38:30;96425.59;;;17.12;45.88
40838;BME280;29632;49.168;9.848;2023-03-30T08:40:55;96442.78;;;17.08;45.99
40838;BME280;29632;49.168;9.848;2023-03-30T08:43:40;96463.78;;;17.01;45.95
40838;BME280;29632;49.168;9.848;2023-03-30T08:46:14;96478.50;;;16.95;46.09
40838;BME280;29632;49.168;9.848;2023-03-30T08:48:40;96477.47;;;16.90;46.27
40838;BME280;29632;49.168;9.848;2023-03-30T08:53:35;96482.59;;;16.76;46.42
40838;BME280;29632;49.168;9.848;2023-03-30T08:56:19;96482.75;;;16.75;46.46
40838;BME280;29632;49.168;9.848;2023-03-30T09:04:47;96482.72;;;16.68;46.53
40838;BME280;29632;49.168;9.848;2023-03-30T09:07:26;96472.13;;;16.61;46.51
40838;BME280;29632;49.168;9.848;2023-03-30T09:09:53;96459.38;;;16.58;46.44
40838;BME280;29632;49.168;9.848;2023-03-30T09:12:22;96407.00;;;16.57;46.45
40838;BME280;29632;49.168;9.848;2023-03-30T09:14:52;96389.22;;;16.59;46.71
40838;BME280;29632;49.168;9.848;2023-03-30T09:19:57;96360.53;;;16.64;46.29
40838;BME280;29632;49.168;9.848;2023-03-30T09:22:29;96375.06;;;16.60;46.36
40838;BME280;29632;49.168;9.848;2023-03-30T09:24:57;96384.13;;;16.57;46.26
40838;BME280;29632;49.168;9.848;2023-03-30T09:30:45;96404.56;;;16.55;46.38
40838;BME280;29632;49.168;9.848;2023-03-30T09:33:32;96400.91;;;16.56;46.32
40838;BME280;29632;49.168;9.848;2023-03-30T09:36:22;96394.47;;;16.59;46.44
40838;BME280;29632;49.168;9.848;2023-03-30T09:38:50;96397.72;;;16.61;46.10
40838;BME280;29632;49.168;9.848;2023-03-30T09:41:46;96390.19;;;16.58;46.27
40838;BME280;29632;49.168;9.848;2023-03-30T09:44:21;96389.78;;;16.54;46.25
40838;BME280;29632;49.168;9.848;2023-03-30T09:46:47;96401.13;;;16.55;46.33
40838;BME280;29632;49.168;9.848;2023-03-30T09:49:14;96393.84;;;16.57;46.40
40838;BME280;29632;49.168;9.848;2023-03-30T09:52:00;96405.97;;;16.58;46.30
40838;BME280;29632;49.168;9.848;2023-03-30T09:54:36;96409.25;;;16.60;46.43
40838;BME280;29632;49.168;9.848;2023-03-30T09:57:02;96418.13;;;16.59;46.45
40838;BME280;29632;49.168;9.848;2023-03-30T09:59:35;96415.50;;;16.59;46.35
40838;BME280;29632;49.168;9.848;2023-03-30T10:07:30;96437.28;;;16.53;46.61
40838;BME280;29632;49.168;9.848;2023-03-30T10:09:57;96442.94;;;16.50;46.78
40838;BME280;29632;49.168;9.848;2023-03-30T10:12:24;96431.59;;;16.49;46.70
40838;BME280;29632;49.168;9.848;2023-03-30T10:14:54;96432.59;;;16.48;46.82
40838;BME280;29632;49.168;9.848;2023-03-30T10:17:22;96424.53;;;16.50;46.82
40838;BME280;29632;49.168;9.848;2023-03-30T10:19:53;96430.41;;;16.52;46.88
40838;BME280;29632;49.168;9.848;2023-03-30T10:25:23;96422.78;;;16.57;46.80
40838;BME280;29632;49.168;9.848;2023-03-30T10:27:50;96417.50;;;16.57;47.00
40838;BME280;29632;49.168;9.848;2023-03-30T10:30:19;96426.00;;;16.59;46.99
40838;BME280;29632;49.168;9.848;2023-03-30T10:32:47;96411.88;;;16.60;46.95
40838;BME280;29632;49.168;9.848;2023-03-30T10:35:17;96389.78;;;16.54;47.16
40838;BME280;29632;49.168;9.848;2023-03-30T10:37:44;96385.09;;;16.50;47.18
40838;BME280;29632;49.168;9.848;2023-03-30T10:40:16;96378.63;;;16.52;47.26
40838;BME280;29632;49.168;9.848;2023-03-30T10:42:43;96373.19;;;16.54;47.16
40838;BME280;29632;49.168;9.848;2023-03-30T10:45:16;96387.34;;;16.53;47.26
40838;BME280;29632;49.168;9.848;2023-03-30T10:48:19;96379.84;;;16.50;47.37
40838;BME280;29632;49.168;9.848;2023-03-30T10:51:16;96374.59;;;16.50;47.47
40838;BME280;29632;49.168;9.848;2023-03-30T10:56:49;96394.59;;;16.51;47.52
40838;BME280;29632;49.168;9.848;2023-03-30T11:04:43;96384.25;;;16.42;47.62
40838;BME280;29632;49.168;9.848;2023-03-30T11:07:34;96382.59;;;16.41;47.66
40838;BME280;29632;49.168;9.848;2023-03-30T11:10:59;96392.31;;;16.41;47.81
40838;BME280;29632;49.168;9.848;2023-03-30T11:12:59;96394.31;;;16.39;47.60
40838;BME280;29632;49.168;9.848;2023-03-30T11:18:00;96388.66;;;16.42;47.89
40838;BME280;29632;49.168;9.848;2023-03-30T11:20:33;96390.69;;;16.40;47.80
40838;BME280;29632;49.168;9.848;2023-03-30T11:23:12;96394.13;;;16.40;47.68
40838;BME280;29632;49.168;9.848;2023-03-30T11:26:04;96398.38;;;16.41;47.86
40838;BME280;29632;49.168;9.848;2023-03-30T11:40:15;96376.63;;;16.54;47.83
40838;BME280;29632;49.168;9.848;2023-03-30T11:42:41;96381.13;;;16.60;47.84
40838;BME280;29632;49.168;9.848;2023-03-30T11:45:18;96379.00;;;16.71;47.88
40838;BME280;29632;49.168;9.848;2023-03-30T11:56:45;96387.94;;;17.11;47.40
40838;BME280;29632;49.168;9.848;2023-03-30T11:59:36;96392.41;;;17.17;47.33
40838;BME280;29632;49.168;9.848;2023-03-30T12:07:56;96400.63;;;17.36;47.29
40838;BME280;29632;49.168;9.848;2023-03-30T12:09:59;96399.44;;;17.39;47.17
40838;BME280;29632;49.168;9.848;2023-03-30T12:12:30;96395.78;;;17.40;47.17
40838;BME280;29632;49.168;9.848;2023-03-30T12:15:14;96385.63;;;17.36;47.22
40838;BME280;29632;49.168;9.848;2023-03-30T12:18:22;96400.44;;;17.38;47.34
40838;BME280;29632;49.168;9.848;2023-03-30T12:23:38;96395.56;;;17.41;47.38
40838;BME280;29632;49.168;9.848;2023-03-30T12:26:31;96388.50;;;17.48;47.44
40838;BME280;29632;49.168;9.848;2023-03-30T12:29:14;96391.38;;;17.53;47.28
40838;BME280;29632;49.168;9.848;2023-03-30T12:34:32;96384.31;;;17.61;47.47
40838;BME280;29632;49.168;9.848;2023-03-30T12:37:20;96380.06;;;17.60;47.47
40838;BME280;29632;49.168;9.848;2023-03-30T12:40:01;96380.25;;;17.58;47.37
40838;BME280;29632;49.168;9.848;2023-03-30T12:42:36;96374.78;;;17.53;47.51
40838;BME280;29632;49.168;9.848;2023-03-30T12:45:26;96372.94;;;17.53;47.49
40838;BME280;29632;49.168;9.848;2023-03-30T12:54:05;96346.25;;;17.63;47.18
40838;BME280;29632;49.168;9.848;2023-03-30T12:56:53;96350.50;;;17.71;47.38
40838;BME280;29632;49.168;9.848;2023-03-30T13:04:41;96365.97;;;17.94;47.21
40838;BME280;29632;49.168;9.848;2023-03-30T13:07:16;96349.38;;;17.93;47.22
40838;BME280;29632;49.168;9.848;2023-03-30T13:09:57;96342.47;;;17.92;47.26
40838;BME280;29632;49.168;9.848;2023-03-30T13:15:01;96336.59;;;17.90;47.15
40838;BME280;29632;49.168;9.848;2023-03-30T13:17:47;96325.63;;;17.87;47.20
40838;BME280;29632;49.168;9.848;2023-03-30T13:20:14;96330.47;;;17.83;47.50
40838;BME280;29632;49.168;9.848;2023-03-30T13:22:52;96322.97;;;17.80;47.43
40838;BME280;29632;49.168;9.848;2023-03-30T13:25:38;96316.69;;;17.81;47.57
40838;BME280;29632;49.168;9.848;2023-03-30T13:30:56;96307.63;;;17.90;47.48
40838;BME280;29632;49.168;9.848;2023-03-30T13:33:25;96307.41;;;17.92;47.50
40838;BME280;29632;49.168;9.848;2023-03-30T13:36:03;96296.88;;;17.92;47.30
40838;BME280;29632;49.168;9.848;2023-03-30T13:38:57;96309.25;;;17.91;47.40
40838;BME280;29632;49.168;9.848;2023-03-30T13:49:26;96301.34;;;18.11;47.20
40838;BME280;29632;49.168;9.848;2023-03-30T13:52:01;96300.31;;;18.06;47.38
40838;BME280;29632;49.168;9.848;2023-03-30T13:54:29;96309.25;;;17.98;47.21
40838;BME280;29632;49.168;9.848;2023-03-30T13:57:08;96302.16;;;17.92;47.23
40838;BME280;29632;49.168;9.848;2023-03-30T13:59:37;96312.22;;;17.82;47.59
40838;BME280;29632;49.168;9.848;2023-03-30T14:02:05;96278.19;;;17.67;47.46
40838;BME280;29632;49.168;9.848;2023-03-30T14:04:33;96290.53;;;17.53;47.63
40838;BME280;29632;49.168;9.848;2023-03-30T14:07:20;96277.13;;;17.41;47.73
40838;BME280;29632;49.168;9.848;2023-03-30T14:10:25;96288.44;;;17.28;47.87
40838;BME280;29632;49.168;9.848;2023-03-30T14:12:52;96305.59;;;17.17;47.94
40838;BME280;29632;49.168;9.848;2023-03-30T14:15:23;96298.91;;;17.15;48.08
40838;BME280;29632;49.168;9.848;2023-03-30T14:17:58;96299.53;;;17.17;47.89
40838;BME280;29632;49.168;9.848;2023-03-30T14:20:47;96299.72;;;17.15;47.89
40838;BME280;29632;49.168;9.848;2023-03-30T14:23:19;96298.13;;;17.14;47.89
40838;BME280;29632;49.168;9.848;2023-03-30T14:25:52;96299.72;;;17.15;47.63
40838;BME280;29632;49.168;9.848;2023-03-30T14:28:19;96297.50;;;17.19;47.38
40838;BME280;29632;49.168;9.848;2023-03-30T14:30:56;96305.00;;;17.22;47.59
40838;BME280;29632;49.168;9.848;2023-03-30T14:33:22;96303.41;;;17.21;47.58
40838;BME280;29632;49.168;9.848;2023-03-30T14:35:55;96303.59;;;17.20;47.50
40838;BME280;29632;49.168;9.848;2023-03-30T14:38:30;96309.84;;;17.18;47.45
40838;BME280;29632;49.168;9.848;2023-03-30T14:41:08;96311.50;;;17.20;47.55
40838;BME280;29632;49.168;9.848;2023-03-30T14:43:37;96308.84;;;17.26;47.61
40838;BME280;29632;49.168;9.848;2023-03-30T14:46:06;96298.16;;;17.34;47.49
40838;BME280;29632;49.168;9.848;2023-03-30T14:48:35;96294.13;;;17.45;47.20
40838;BME280;29632;49.168;9.848;2023-03-30T14:51:03;96298.81;;;17.50;47.21
40838;BME280;29632;49.168;9.848;2023-03-30T14:53:32;96302.84;;;17.52;47.21
40838;BME280;29632;49.168;9.848;2023-03-30T14:55:59;96305.09;;;17.55;46.88
40838;BME280;29632;49.168;9.848;2023-03-30T14:58:27;96298.22;;;17.61;46.97
40838;BME280;29632;49.168;9.848;2023-03-30T15:00:59;96296.63;;;17.67;46.80
40838;BME280;29632;49.168;9.848;2023-03-30T15:03:27;96294.19;;;17.65;46.99
40838;BME280;29632;49.168;9.848;2023-03-30T15:05:54;96288.94;;;17.65;46.84
40838;BME280;29632;49.168;9.848;2023-03-30T15:08:24;96286.06;;;17.60;46.97
40838;BME280;29632;49.168;9.848;2023-03-30T15:10:53;96293.75;;;17.55;46.75
40838;BME280;29632;49.168;9.848;2023-03-30T15:13:31;96282.03;;;17.51;47.02
40838;BME280;29632;49.168;9.848;2023-03-30T15:15:59;96287.69;;;17.48;46.84
40838;BME280;29632;49.168;9.848;2023-03-30T15:18:26;96289.50;;;17.47;47.13